| time (UTC) | temp C | wind direction | speed KPH | gust KPH | rain 1hr cm | rain 24hr cm | rain mn cm | humidity % | barometer mb |
| 20260507091023 | 8 | 0.0 | 0.0 | 0.00 | 0.69 | 0.08 | 95 | 1008.7 | |
| 20260507090041 | 8 | 0.0 | 0.0 | 0.00 | 0.69 | 0.08 | 95 | 1008.9 | |
| 20260507085019 | 8 | 346 | 0.0 | 1.6 | 0.05 | 0.69 | 0.08 | 95 | 1008.7 |
| 20260507084028 | 8 | 204 | 0.0 | 1.6 | 0.08 | 0.69 | 0.08 | 94 | 1008.5 |
| 20260507083026 | 8 | 0.0 | 0.0 | 0.08 | 0.69 | 0.08 | 93 | 1008.4 | |
| 20260507082024 | 9 | 0.0 | 0.0 | 0.08 | 0.69 | 0.08 | 93 | 1008.3 | |
| 20260507081022 | 9 | 0.0 | 0.0 | 0.08 | 0.69 | 0.08 | 92 | 1008.3 | |
| 20260507080020 | 9 | 0.0 | 0.0 | 0.08 | 0.69 | 0.08 | 91 | 1008.0 | |
| 20260507075029 | 10 | 234 | 0.0 | 3.2 | 0.03 | 0.64 | 0.03 | 90 | 1008.3 |
| 20260507074047 | 10 | 202 | 1.6 | 4.8 | 0.00 | 0.61 | 0.00 | 90 | 1008.5 |
| 20260507073024 | 10 | 0.0 | 0.0 | 0.00 | 0.61 | 0.00 | 90 | 1008.3 | |
| 20260507072023 | 10 | 0.0 | 0.0 | 0.00 | 0.61 | 0.00 | 90 | 1007.9 | |
| 20260507071020 | 10 | 160 | 0.0 | 3.2 | 0.00 | 0.61 | 0.00 | 90 | 1007.9 |
| 20260507070030 | 10 | 218 | 1.6 | 4.8 | 0.00 | 0.61 | 0.00 | 91 | 1008.0 |
| 20260507065027 | 10 | 0.0 | 0.0 | 0.00 | 0.61 | 0.00 | 90 | 1007.9 | |
| 20260507064025 | 10 | 192 | 0.0 | 1.6 | 0.00 | 0.61 | 0.00 | 90 | 1007.7 |
| 20260507063045 | 10 | 0.0 | 0.0 | 0.00 | 0.61 | 0.00 | 90 | 1007.9 | |
| 20260507062022 | 10 | 310 | 0.0 | 3.2 | 0.00 | 0.61 | 0.00 | 90 | 1007.6 |
| 20260507061019 | 10 | 286 | 0.0 | 3.2 | 0.00 | 0.61 | 0.00 | 91 | 1007.6 |
| 20260507060048 | 10 | 0.0 | 0.0 | 0.00 | 0.61 | 0.00 | 91 | 1007.7 | |
| 20260507055026 | 10 | 0.0 | 0.0 | 0.00 | 0.61 | 0.00 | 92 | 1008.1 | |
| 20260507054025 | 11 | 290 | 1.6 | 4.8 | 0.00 | 0.61 | 0.00 | 92 | 1008.2 |
| 20260507053038 | 11 | 0.0 | 0.0 | 0.00 | 0.61 | 0.00 | 93 | 1008.3 | |
| 20260507052020 | 11 | 0.0 | 0.0 | 0.00 | 0.61 | 0.00 | 93 | 1008.2 | |
| 20260507051032 | 11 | 0.0 | 0.0 | 0.00 | 0.61 | 0.00 | 92 | 1008.1 | |
| 20260507050027 | 11 | 0.0 | 0.0 | 0.00 | 0.61 | 0.00 | 92 | 1008.1 | |
| 20260507045045 | 11 | 341 | 1.6 | 4.8 | 0.00 | 0.61 | 0.00 | 92 | 1007.9 |
| 20260507044023 | 11 | 0.0 | 0.0 | 0.00 | 0.61 | 0.00 | 94 | 1008.0 | |
| 20260507043102 | 11 | 328 | 1.6 | 3.2 | 0.00 | 0.61 | 0.00 | 93 | 1008.0 |
| 20260507042039 | 12 | 344 | 1.6 | 3.2 | 0.00 | 0.61 | 0.00 | 94 | 1008.1 |
| 20260507041029 | 12 | 312 | 0.0 | 3.2 | 0.00 | 0.61 | 0.00 | 94 | 1008.2 |
| 20260507040027 | 12 | 0.0 | 0.0 | 0.00 | 0.61 | 0.00 | 94 | 1008.0 | |
| 20260507035107 | 12 | 0.0 | 0.0 | 0.00 | 0.61 | 0.61 | 94 | 1007.8 | |
| 20260507034022 | 13 | 260 | 0.0 | 1.6 | 0.00 | 0.61 | 0.61 | 95 | 1007.5 |
| 20260507033040 | 13 | 313 | 3.2 | 6.4 | 0.00 | 0.61 | 0.61 | 96 | 1007.3 |
| 20260507032031 | 13 | 0.0 | 0.0 | 0.00 | 0.61 | 0.61 | 97 | 1007.2 | |
| 20260507031026 | 13 | 0.0 | 0.0 | 0.00 | 0.61 | 0.61 | 97 | 1007.0 | |
| 20260507030025 | 14 | 0.0 | 0.0 | 0.00 | 0.61 | 0.61 | 97 | 1007.1 | |
| 20260507025023 | 15 | 0.0 | 0.0 | 0.00 | 0.61 | 0.61 | 97 | 1007.1 | |
| 20260507024021 | 15 | 328 | 0.0 | 1.6 | 0.00 | 0.61 | 0.61 | 97 | 1006.9 |
| 20260507023029 | 15 | 0.0 | 0.0 | 0.00 | 0.61 | 0.61 | 97 | 1006.9 | |
| 20260507022027 | 15 | 0.0 | 0.0 | 0.00 | 0.61 | 0.61 | 97 | 1006.7 | |
| 20260507021025 | 15 | 201 | 0.0 | 4.8 | 0.00 | 0.61 | 0.61 | 97 | 1006.4 |
| 20260507020026 | 15 | 184 | 1.6 | 12.9 | 0.00 | 0.61 | 0.61 | 97 | 1006.5 |
| 20260507015021 | 15 | 213 | 4.8 | 8.0 | 0.00 | 0.61 | 0.61 | 97 | 1006.4 |
| 20260507014021 | 15 | 188 | 4.8 | 11.3 | 0.00 | 0.61 | 0.61 | 97 | 1006.5 |
| 20260507013030 | 15 | 205 | 3.2 | 8.0 | 0.00 | 0.61 | 0.61 | 97 | 1006.5 |
| 20260507012026 | 15 | 210 | 4.8 | 12.9 | 0.00 | 0.61 | 0.61 | 97 | 1006.5 |
| 20260507011024 | 15 | 200 | 4.8 | 12.9 | 0.00 | 0.61 | 0.61 | 97 | 1006.5 |
| 20260507010042 | 15 | 222 | 3.2 | 6.4 | 0.00 | 0.61 | 0.61 | 97 | 1006.5 |
| 20260507005020 | 15 | 252 | 1.6 | 3.2 | 0.00 | 0.61 | 0.61 | 97 | 1006.5 |
| 20260507004029 | 15 | 195 | 1.6 | 6.4 | 0.00 | 0.61 | 0.61 | 97 | 1006.4 |
| 20260507003047 | 15 | 207 | 1.6 | 8.0 | 0.00 | 0.61 | 0.61 | 97 | 1006.2 |
| 20260507002025 | 15 | 200 | 1.6 | 4.8 | 0.03 | 0.61 | 0.61 | 97 | 1006.3 |
| 20260507001025 | 15 | 217 | 4.8 | 9.7 | 0.03 | 0.61 | 0.61 | 97 | 1006.4 |
| 20260507000022 | 15 | 216 | 3.2 | 6.4 | 0.05 | 0.61 | 0.61 | 97 | 1006.2 |
| 20260506235019 | 15 | 222 | 3.2 | 9.7 | 0.08 | 0.61 | 0.61 | 97 | 1006.2 |
| 20260506234029 | 15 | 223 | 3.2 | 4.8 | 0.10 | 0.61 | 0.61 | 97 | 1006.1 |
| 20260506233026 | 15 | 188 | 4.8 | 12.9 | 0.10 | 0.61 | 0.61 | 96 | 1006.1 |
| 20260506232144 | 15 | 226 | 1.6 | 4.8 | 0.08 | 0.58 | 0.58 | 96 | 1006.2 |
| 20260506231042 | 15 | 198 | 3.2 | 12.9 | 0.10 | 0.58 | 0.58 | 96 | 1006.2 |
| 20260506230019 | 15 | 240 | 3.2 | 8.0 | 0.08 | 0.56 | 0.56 | 96 | 1006.3 |
| 20260506225029 | 15 | 207 | 4.8 | 9.7 | 0.08 | 0.53 | 0.53 | 96 | 1006.5 |
| 20260506224027 | 15 | 171 | 4.8 | 8.0 | 0.08 | 0.51 | 0.51 | 95 | 1006.4 |
| 20260506223024 | 15 | 206 | 4.8 | 11.3 | 0.10 | 0.51 | 0.51 | 95 | 1006.4 |
| 20260506222024 | 15 | 233 | 4.8 | 9.7 | 0.10 | 0.51 | 0.51 | 95 | 1006.4 |
| 20260506221021 | 15 | 213 | 3.2 | 8.0 | 0.10 | 0.48 | 0.48 | 95 | 1006.5 |
| 20260506220030 | 15 | 240 | 6.4 | 11.3 | 0.13 | 0.48 | 0.48 | 95 | 1006.5 |
| 20260506215028 | 15 | 273 | 4.8 | 9.7 | 0.13 | 0.46 | 0.46 | 95 | 1006.6 |
| 20260506214025 | 15 | 265 | 6.4 | 9.7 | 0.15 | 0.43 | 0.43 | 94 | 1006.5 |
| 20260506213023 | 15 | 255 | 6.4 | 9.7 | 0.15 | 0.41 | 0.41 | 94 | 1006.6 |
| 20260506212021 | 15 | 257 | 6.4 | 11.3 | 0.18 | 0.41 | 0.41 | 94 | 1006.7 |
| 20260506211019 | 15 | 267 | 6.4 | 14.5 | 0.20 | 0.38 | 0.38 | 94 | 1006.9 |
| 20260506210028 | 15 | 277 | 4.8 | 8.0 | 0.18 | 0.36 | 0.36 | 94 | 1006.9 |
| 20260506205026 | 16 | 241 | 6.4 | 9.7 | 0.15 | 0.33 | 0.33 | 94 | 1007.0 |
| 20260506204024 | 16 | 263 | 4.8 | 8.0 | 0.10 | 0.28 | 0.28 | 93 | 1007.1 |
| 20260506203024 | 16 | 266 | 4.8 | 9.7 | 0.08 | 0.25 | 0.25 | 92 | 1007.1 |
| 20260506202020 | 16 | 254 | 6.4 | 12.9 | 0.05 | 0.23 | 0.23 | 91 | 1007.1 |
| 20260506201030 | 16 | 261 | 6.4 | 12.9 | 0.03 | 0.18 | 0.18 | 89 | 1007.2 |
| 20260506200030 | 16 | 266 | 6.4 | 14.5 | 0.03 | 0.18 | 0.18 | 88 | 1007.2 |
| 20260506195025 | 17 | 267 | 4.8 | 12.9 | 0.05 | 0.18 | 0.18 | 88 | 1007.3 |
| 20260506194023 | 16 | 281 | 4.8 | 8.0 | 0.08 | 0.18 | 0.18 | 90 | 1007.2 |
| 20260506193021 | 16 | 257 | 4.8 | 8.0 | 0.10 | 0.18 | 0.18 | 91 | 1007.1 |
| 20260506192020 | 17 | 244 | 1.6 | 4.8 | 0.13 | 0.18 | 0.18 | 91 | 1007.2 |
| 20260506191027 | 17 | 255 | 1.6 | 6.4 | 0.13 | 0.15 | 0.15 | 89 | 1007.0 |
| 20260506190026 | 17 | 266 | 3.2 | 6.4 | 0.15 | 0.15 | 0.15 | 89 | 1007.4 |
| 20260506185024 | 17 | 264 | 4.8 | 12.9 | 0.13 | 0.13 | 0.13 | 88 | 1007.6 |
| 20260506184103 | 17 | 252 | 0.0 | 3.2 | 0.10 | 0.10 | 0.10 | 88 | 1007.6 |
| 20260506183020 | 17 | 257 | 1.6 | 4.8 | 0.08 | 0.08 | 0.08 | 86 | 1007.8 |
| 20260506182028 | 18 | 240 | 1.6 | 3.2 | 0.05 | 0.05 | 0.05 | 83 | 1008.0 |
| 20260506181027 | 18 | 290 | 0.0 | 1.6 | 0.03 | 0.03 | 0.03 | 77 | 1007.9 |
| 20260506180045 | 19 | 0.0 | 0.0 | 0.00 | 0.00 | 0.00 | 73 | 1007.8 | |
| 20260506175023 | 20 | 338 | 1.6 | 6.4 | 0.00 | 0.00 | 0.00 | 69 | 1007.8 |
| 20260506174021 | 21 | 258 | 4.8 | 11.3 | 0.00 | 0.00 | 0.00 | 61 | 1007.8 |
| 20260506173029 | 22 | 276 | 6.4 | 9.7 | 0.00 | 0.00 | 0.00 | 56 | 1007.5 |
| 20260506172028 | 22 | 300 | 4.8 | 11.3 | 0.00 | 0.00 | 0.00 | 55 | 1007.4 |
| 20260506171025 | 22 | 274 | 6.4 | 9.7 | 0.00 | 0.00 | 0.00 | 54 | 1007.5 |
| 20260506170023 | 22 | 287 | 11.3 | 22.5 | 0.00 | 0.00 | 0.00 | 54 | 1007.7 |
| 20260506165022 | 22 | 279 | 9.7 | 14.5 | 0.00 | 0.00 | 0.00 | 55 | 1007.8 |
| 20260506164019 | 22 | 193 | 9.7 | 14.5 | 0.00 | 0.00 | 0.00 | 57 | 1008.0 |
| 20260506163048 | 21 | 234 | 8.0 | 17.7 | 0.00 | 0.00 | 0.00 | 59 | 1008.2 |
| 20260506162027 | 21 | 216 | 8.0 | 12.9 | 0.00 | 0.00 | 0.00 | 59 | 1008.3 |
| 20260506161024 | 21 | 248 | 8.0 | 16.1 | 0.00 | 0.00 | 0.00 | 60 | 1008.5 |
| 20260506160022 | 21 | 227 | 8.0 | 12.9 | 0.00 | 0.00 | 0.00 | 61 | 1008.8 |
| 20260506155020 | 21 | 225 | 8.0 | 14.5 | 0.00 | 0.00 | 0.00 | 61 | 1009.1 |
| 20260506154029 | 21 | 210 | 8.0 | 12.9 | 0.00 | 0.00 | 0.00 | 62 | 1009.2 |
| 20260506153027 | 20 | 229 | 4.8 | 9.7 | 0.00 | 0.00 | 0.00 | 62 | 1009.4 |
| 20260506152025 | 21 | 214 | 8.0 | 12.9 | 0.00 | 0.00 | 0.00 | 62 | 1009.5 |
| 20260506151043 | 21 | 210 | 8.0 | 19.3 | 0.00 | 0.00 | 0.00 | 61 | 1009.6 |
| 20260506150021 | 21 | 207 | 9.7 | 16.1 | 0.00 | 0.00 | 0.00 | 62 | 1009.5 |
| 20260506145041 | 21 | 196 | 8.0 | 16.1 | 0.00 | 0.00 | 0.00 | 63 | 1009.7 |
| 20260506144028 | 20 | 230 | 6.4 | 12.9 | 0.00 | 0.00 | 0.00 | 63 | 1009.5 |
| 20260506143027 | 20 | 215 | 9.7 | 16.1 | 0.00 | 0.00 | 0.00 | 63 | 1009.4 |
| 20260506142024 | 21 | 189 | 6.4 | 14.5 | 0.00 | 0.00 | 0.00 | 64 | 1009.5 |
| 20260506141021 | 20 | 227 | 8.0 | 16.1 | 0.00 | 0.00 | 0.00 | 65 | 1009.2 |
| 20260506140100 | 20 | 210 | 8.0 | 17.7 | 0.00 | 0.00 | 0.00 | 67 | 1009.3 |
| 20260506135028 | 19 | 236 | 6.4 | 11.3 | 0.00 | 0.00 | 0.00 | 68 | 1009.4 |
| 20260506134046 | 19 | 227 | 6.4 | 9.7 | 0.00 | 0.00 | 0.00 | 69 | 1009.5 |
| 20260506133024 | 18 | 191 | 6.4 | 9.7 | 0.00 | 0.00 | 0.00 | 70 | 1009.6 |
| 20260506132023 | 18 | 211 | 9.7 | 16.1 | 0.00 | 0.00 | 0.00 | 70 | 1009.9 |
| 20260506131021 | 18 | 220 | 8.0 | 14.5 | 0.00 | 0.00 | 0.00 | 71 | 1010.0 |
| 20260506130031 | 18 | 204 | 6.4 | 14.5 | 0.00 | 0.00 | 0.00 | 71 | 1009.9 |
| 20260506125027 | 18 | 227 | 8.0 | 14.5 | 0.00 | 0.00 | 0.00 | 71 | 1010.1 |
| 20260506124025 | 18 | 204 | 6.4 | 11.3 | 0.00 | 0.00 | 0.00 | 71 | 1009.9 |
| 20260506123023 | 17 | 222 | 4.8 | 11.3 | 0.00 | 0.00 | 0.00 | 73 | 1009.8 |
| 20260506122021 | 17 | 197 | 4.8 | 8.0 | 0.00 | 0.00 | 0.00 | 74 | 1009.9 |
| 20260506121020 | 17 | 202 | 6.4 | 12.9 | 0.00 | 0.00 | 0.00 | 74 | 1010.1 |
| 20260506120031 | 17 | 210 | 6.4 | 11.3 | 0.00 | 0.00 | 0.00 | 75 | 1010.1 |
| 20260506115107 | 16 | 216 | 6.4 | 9.7 | 0.00 | 0.00 | 0.00 | 76 | 1010.3 |
| 20260506114024 | 16 | 215 | 6.4 | 14.5 | 0.00 | 0.00 | 0.00 | 76 | 1010.3 |
| 20260506113024 | 16 | 232 | 3.2 | 4.8 | 0.00 | 0.00 | 0.00 | 76 | 1010.3 |
| 20260506112100 | 16 | 198 | 6.4 | 14.5 | 0.00 | 0.00 | 0.00 | 77 | 1010.5 |
| 20260506111049 | 16 | 215 | 6.4 | 11.3 | 0.00 | 0.00 | 0.00 | 76 | 1010.4 |
| 20260506110027 | 16 | 197 | 6.4 | 12.9 | 0.00 | 0.00 | 0.00 | 77 | 1010.3 |
| 20260506105125 | 15 | 212 | 4.8 | 8.0 | 0.00 | 0.00 | 0.00 | 78 | 1010.4 |
| 20260506104026 | 15 | 224 | 6.4 | 11.3 | 0.00 | 0.00 | 0.00 | 78 | 1010.5 |
| 20260506103021 | 15 | 223 | 4.8 | 11.3 | 0.00 | 0.00 | 0.00 | 77 | 1010.3 |
| 20260506102019 | 15 | 216 | 4.8 | 11.3 | 0.00 | 0.00 | 0.00 | 77 | 1010.1 |
| 20260506101030 | 15 | 220 | 4.8 | 9.7 | 0.00 | 0.00 | 0.00 | 77 | 1010.3 |
| 20260506100026 | 15 | 230 | 4.8 | 8.0 | 0.00 | 0.00 | 0.00 | 77 | 1010.3 |
| 20260506095024 | 15 | 228 | 4.8 | 9.7 | 0.00 | 0.00 | 0.00 | 76 | 1010.2 |
| 20260506094021 | 15 | 197 | 6.4 | 14.5 | 0.00 | 0.00 | 0.00 | 76 | 1010.1 |
| 20260506093020 | 15 | 215 | 4.8 | 12.9 | 0.00 | 0.00 | 0.00 | 76 | 1010.0 |
| 20260506092028 | 16 | 219 | 4.8 | 8.0 | 0.00 | 0.00 | 0.00 | 75 | 1010.4 |